Time;durP1;ratioP1;P1;durP2;ratioP2;P2;SDS_P1;SDS_P2;PMS_P1;PMS_P2;Temp;Humidity;BMP_temperature;BMP_pressure;BME280_temperature;BME280_humidity;BME280_pressure;Samples;Min_cycle;Max_cycle;Signal;HPM_P1;HPM_P2
2023/04/15 00:01:23;;;;;;;3.83;1.08;;;;;;;7.08;41.10;100465.44;4911906;28;20049;-52
2023/04/15 00:03:55;;;;;;;3.08;1.45;;;;;;;7.13;43.86;100466.31;4891826;28;20038;-55
2023/04/15 00:06:26;;;;;;;1.63;1.30;;;;;;;7.27;43.20;100475.00;4875208;28;20703;-56
2023/04/15 00:08:58;;;;;;;13.02;4.82;;;;;;;7.34;42.24;100479.34;4894319;28;20065;-55
2023/04/15 00:11:29;;;;;;;2.33;1.13;;;;;;;7.42;41.18;100473.28;4909341;28;20064;-50
2023/04/15 00:14:00;;;;;;;4.45;1.30;;;;;;;7.28;41.92;100449.84;4904175;28;20059;-52
2023/04/15 00:16:30;;;;;;;2.47;1.30;;;;;;;7.57;40.91;100484.53;4906947;28;20151;-55
2023/04/15 00:19:01;;;;;;;5.78;1.30;;;;;;;7.67;41.31;100474.13;4911079;28;20048;-56
2023/04/15 00:21:32;;;;;;;2.45;1.00;;;;;;;7.63;40.16;100473.25;4911384;28;20105;-51
2023/04/15 00:24:04;;;;;;;3.45;1.40;;;;;;;7.57;40.29;100488.84;4911262;28;20041;-53
2023/04/15 00:26:35;;;;;;;1.58;1.13;;;;;;;7.41;41.12;100461.13;4911459;28;20048;-52
2023/04/15 00:29:05;;;;;;;2.22;1.33;;;;;;;7.52;40.53;100475.00;4911047;28;21089;-54
2023/04/15 00:31:36;;;;;;;1.85;1.30;;;;;;;7.28;39.01;100487.09;4910895;28;20255;-55
2023/04/15 00:34:06;;;;;;;0.95;0.85;;;;;;;7.15;37.53;100482.78;4905310;28;20047;-51
2023/04/15 00:36:37;;;;;;;2.28;1.15;;;;;;;6.65;37.29;100467.97;4883608;28;20064;-55
2023/04/15 00:39:09;;;;;;;1.92;1.27;;;;;;;6.98;39.85;100481.88;4878267;28;20065;-50
2023/04/15 00:41:40;;;;;;;4.80;1.08;;;;;;;7.45;41.65;100468.06;4874480;28;20049;-54
2023/04/15 00:44:10;;;;;;;2.90;1.40;;;;;;;7.95;40.21;100474.94;4892140;28;20478;-55
2023/04/15 00:46:42;;;;;;;2.70;1.20;;;;;;;7.74;38.02;100476.72;4891929;28;20049;-52
2023/04/15 00:49:13;;;;;;;4.22;1.48;;;;;;;7.58;39.92;100474.97;4892834;28;20157;-53
2023/04/15 00:51:44;;;;;;;3.15;1.40;;;;;;;7.62;38.82;100471.50;4890930;28;20052;-55
2023/04/15 00:54:16;;;;;;;2.00;1.00;;;;;;;7.87;38.92;100467.16;4891663;28;20067;-55
2023/04/15 00:56:47;;;;;;;3.38;1.30;;;;;;;8.05;39.55;100471.44;4887637;28;20562;-49
2023/04/15 00:59:19;;;;;;;2.92;1.20;;;;;;;8.32;39.90;100459.19;4901522;28;20444;-57
2023/04/15 01:01:50;;;;;;;2.00;1.17;;;;;;;8.47;38.96;100453.97;4910329;28;20067;-57
2023/04/15 01:04:21;;;;;;;2.63;1.02;;;;;;;8.58;37.07;100462.56;4911034;28;20067;-56
2023/04/15 01:06:52;;;;;;;1.90;1.13;;;;;;;8.88;38.28;100452.84;4910438;28;20505;-58
2023/04/15 01:09:24;;;;;;;1.83;1.20;;;;;;;8.94;37.41;100449.38;4903799;28;20486;-57
2023/04/15 01:11:55;;;;;;;1.73;1.10;;;;;;;8.56;34.59;100456.53;4907838;28;20055;-56
2023/04/15 01:14:26;;;;;;;2.95;1.10;;;;;;;8.27;35.28;100451.41;4903428;28;20921;-57
2023/04/15 01:16:57;;;;;;;2.15;1.25;;;;;;;7.74;36.22;100449.84;4902211;28;20064;-57
2023/04/15 01:19:27;;;;;;;1.90;1.00;;;;;;;7.63;35.95;100442.03;4909499;28;20440;-56
2023/04/15 01:21:58;;;;;;;1.73;0.98;;;;;;;7.57;37.19;100444.66;4911652;28;20042;-58
2023/04/15 01:24:32;;;;;;;3.70;1.20;;;;;;;7.37;36.78;100407.41;4910847;28;20049;-57
2023/04/15 01:27:05;;;;;;;7.03;1.58;;;;;;;7.83;38.95;100433.31;4910589;28;20044;-57
2023/04/15 01:29:44;;;;;;;1.85;1.10;;;;;;;8.07;37.74;100443.66;4910620;28;20070;-57
2023/04/15 01:32:15;;;;;;;5.57;1.52;;;;;;;7.98;38.57;100435.88;4909939;28;20067;-55
2023/04/15 01:34:46;;;;;;;1.95;1.10;;;;;;;8.11;37.73;100439.31;4910368;28;20089;-56
2023/04/15 01:37:16;;;;;;;4.43;1.25;;;;;;;7.98;35.80;100448.88;4909442;28;21026;-56
2023/04/15 01:39:47;;;;;;;2.95;1.88;;;;;;;7.86;35.69;100448.91;4915428;28;20537;-57
2023/04/15 01:42:19;;;;;;;3.10;1.75;;;;;;;7.66;35.35;100442.06;4913653;28;20053;-56
2023/04/15 01:44:50;;;;;;;2.22;1.00;;;;;;;7.19;35.14;100440.34;4910282;28;20070;-57
2023/04/15 01:47:21;;;;;;;1.80;0.90;;;;;;;7.11;35.87;100436.84;4910221;28;20063;-58
2023/04/15 01:49:51;;;;;;;2.03;1.10;;;;;;;7.55;38.18;100434.25;4909710;28;20074;-60
2023/04/15 01:52:22;;;;;;;2.63;1.20;;;;;;;7.86;39.27;100429.00;4909682;28;20631;-58
2023/04/15 01:54:53;;;;;;;3.03;1.38;;;;;;;8.35;40.50;100407.13;4909484;28;20146;-59
2023/04/15 01:57:25;;;;;;;8.23;2.83;;;;;;;8.77;38.62;100410.38;4891040;28;20414;-60
2023/04/15 01:59:55;;;;;;;3.03;1.92;;;;;;;9.07;39.23;100407.53;4891026;28;20518;-56
2023/04/15 02:02:26;;;;;;;4.40;2.05;;;;;;;9.25;37.49;100403.06;4891139;28;20107;-57
2023/04/15 02:04:57;;;;;;;4.40;1.27;;;;;;;8.63;34.48;100408.72;4888556;28;20073;-57
2023/04/15 02:07:31;;;;;;;2.78;1.13;;;;;;;8.26;34.60;100395.00;4896263;28;20037;-56
2023/04/15 02:10:01;;;;;;;1.15;0.93;;;;;;;7.82;35.18;100400.38;4900507;28;20494;-57
2023/04/15 02:12:33;;;;;;;2.90;1.27;;;;;;;7.73;37.96;100412.53;4906714;28;20149;-61
2023/04/15 02:15:04;;;;;;;9.02;4.43;;;;;;;7.90;37.61;100409.03;4900806;28;20213;-59
2023/04/15 02:17:36;;;;;;;4.07;2.20;;;;;;;8.40;39.19;100394.97;4906482;28;20052;-58
2023/04/15 02:20:08;;;;;;;4.32;1.80;;;;;;;9.03;38.26;100398.00;4907118;28;20443;-57
2023/04/15 02:22:38;;;;;;;5.13;1.50;;;;;;;9.21;38.33;100396.13;4909834;28;20113;-57
2023/04/15 02:25:10;;;;;;;3.65;1.33;;;;;;;9.13;37.34;100388.38;4909668;28;20048;-56
2023/04/15 02:27:42;;;;;;;7.90;2.28;;;;;;;9.24;38.85;100385.69;4909622;28;20148;-58
2023/04/15 02:30:13;;;;;;;3.95;1.63;;;;;;;9.53;37.94;100397.56;4909540;28;20048;-58
2023/04/15 02:32:43;;;;;;;2.42;0.85;;;;;;;9.37;35.40;100382.09;4909137;28;20055;-56
2023/04/15 02:35:14;;;;;;;3.10;1.00;;;;;;;8.96;33.92;100385.94;4909781;28;20044;-58
2023/04/15 02:37:45;;;;;;;3.22;1.00;;;;;;;8.00;34.39;100348.28;4909271;28;20048;-57
2023/04/15 02:40:16;;;;;;;2.17;0.90;;;;;;;7.40;35.95;100389.22;4909348;28;20049;-57
2023/04/15 02:42:48;;;;;;;3.40;1.27;;;;;;;6.97;36.32;100394.44;4909390;28;20049;-58
2023/04/15 02:45:22;;;;;;;2.95;1.80;;;;;;;7.18;36.08;100391.81;4894184;28;20411;-57
2023/04/15 02:47:53;;;;;;;1.92;0.98;;;;;;;7.29;36.75;100390.09;4902962;28;20053;-57
2023/04/15 02:50:24;;;;;;;1.85;1.00;;;;;;;7.50;36.50;100399.59;4907456;28;20064;-58
2023/04/15 02:52:54;;;;;;;3.17;1.20;;;;;;;7.06;34.98;100381.41;4903280;28;20053;-57
2023/04/15 02:55:25;;;;;;;6.15;1.10;;;;;;;6.76;35.91;100388.34;4907503;28;20087;-56
2023/04/15 02:57:59;;;;;;;3.28;1.00;;;;;;;7.21;35.87;100376.22;4895243;28;20045;-56
2023/04/15 03:00:30;;;;;;;2.80;1.33;;;;;;;7.76;37.31;100376.13;4877622;28;20136;-56
2023/04/15 03:03:07;;;;;;;5.13;1.40;;;;;;;7.74;34.66;100372.66;4890557;28;20064;-57
2023/04/15 03:05:38;;;;;;;4.68;1.00;;;;;;;7.73;34.97;100389.13;4902607;28;20042;-56
2023/04/15 03:08:09;;;;;;;2.13;1.00;;;;;;;7.51;35.12;100379.63;4909473;28;20052;-57
2023/04/15 03:10:40;;;;;;;1.63;0.90;;;;;;;7.55;35.36;100376.19;4904045;28;20505;-57
2023/04/15 03:13:15;;;;;;;4.35;1.00;;;;;;;7.76;36.01;100386.53;4910684;28;20474;-55
2023/04/15 03:15:47;;;;;;;3.47;1.20;;;;;;;7.93;34.92;100383.00;4906113;28;20475;-57
2023/04/15 03:18:18;;;;;;;2.83;1.02;;;;;;;7.93;36.50;100367.38;4897150;28;20050;-57
2023/04/15 03:20:49;;;;;;;3.42;1.17;;;;;;;7.88;34.62;100382.16;4907490;28;20044;-56
2023/04/15 03:23:20;;;;;;;4.22;1.20;;;;;;;7.35;34.64;100374.47;4909620;28;20083;-57
2023/04/15 03:25:50;;;;;;;1.55;1.15;;;;;;;7.05;35.96;100387.50;4909286;28;20048;-56
2023/04/15 03:28:23;;;;;;;1.95;1.23;;;;;;;6.77;35.34;100366.72;4909204;28;20195;-57
2023/04/15 03:30:53;;;;;;;3.75;1.20;;;;;;;6.96;34.99;100377.09;4909095;28;20060;-56
2023/04/15 03:33:24;;;;;;;4.57;1.02;;;;;;;6.94;35.49;100373.63;4908614;28;20242;-56
2023/04/15 03:35:54;;;;;;;3.88;1.00;;;;;;;6.96;36.16;100369.31;4908587;28;20406;-56
2023/04/15 03:38:25;;;;;;;5.10;1.30;;;;;;;7.63;38.09;100384.81;4908994;28;20507;-55
2023/04/15 03:40:56;;;;;;;3.80;1.77;;;;;;;8.33;38.45;100372.41;4908288;28;20042;-56
2023/04/15 03:43:28;;;;;;;1.70;1.00;;;;;;;8.64;37.58;100376.59;4914767;28;20511;-56
2023/04/15 03:45:59;;;;;;;13.25;1.13;;;;;;;8.83;34.88;100379.91;4908327;28;20048;-57
2023/04/15 03:48:30;;;;;;;5.85;1.23;;;;;;;8.50;32.80;100354.97;4891830;28;20096;-57
2023/04/15 03:51:01;;;;;;;1.60;0.90;;;;;;;7.84;32.54;100372.59;4887210;28;20048;-58
2023/04/15 03:53:31;;;;;;;2.42;1.00;;;;;;;7.23;34.14;100384.88;4917147;28;20352;-57
2023/04/15 03:56:02;;;;;;;1.15;0.90;;;;;;;7.02;33.46;100390.09;4892765;28;20049;-57
2023/04/15 03:58:34;;;;;;;1.48;0.98;;;;;;;7.23;33.79;100390.06;4912043;28;20149;-56
2023/04/15 04:01:05;;;;;;;2.58;0.90;;;;;;;7.49;33.53;100386.59;4906151;28;20422;-57
2023/04/15 04:03:36;;;;;;;1.85;1.17;;;;;;;7.56;33.85;100388.28;4893705;28;20053;-56
2023/04/15 04:06:07;;;;;;;1.58;1.02;;;;;;;7.60;34.19;100386.56;4910196;28;20049;-57
2023/04/15 04:08:37;;;;;;;3.60;1.10;;;;;;;7.44;33.82;100388.31;4918373;28;20061;-57
2023/04/15 04:11:10;;;;;;;1.52;1.05;;;;;;;7.60;35.21;100384.84;4911334;28;20054;-57
2023/04/15 04:13:43;;;;;;;2.38;1.02;;;;;;;7.64;34.18;100381.38;4906023;28;20591;-56
2023/04/15 04:16:13;;;;;;;1.65;1.10;;;;;;;7.78;34.66;100373.50;4912260;28;20091;-56
2023/04/15 04:18:44;;;;;;;1.88;1.05;;;;;;;7.89;34.27;100366.53;4911274;28;20075;-56
2023/04/15 04:21:15;;;;;;;3.38;1.00;;;;;;;8.11;34.38;100367.31;4906284;28;20423;-56
2023/04/15 04:23:45;;;;;;;2.33;0.90;;;;;;;8.13;33.48;100360.34;4906549;28;20053;-56
2023/04/15 04:26:16;;;;;;;2.20;1.35;;;;;;;8.09;32.83;100361.25;4908507;28;20083;-57
2023/04/15 04:28:48;;;;;;;4.30;1.70;;;;;;;7.87;32.98;100359.63;4910050;28;20644;-56
2023/04/15 04:31:18;;;;;;;1.88;1.00;;;;;;;7.81;34.06;100333.59;4911218;28;20048;-56
2023/04/15 04:33:49;;;;;;;2.25;1.08;;;;;;;8.27;34.43;100375.06;4911250;28;20068;-58
2023/04/15 04:36:20;;;;;;;1.40;0.90;;;;;;;8.13;32.05;100381.16;4910744;28;20484;-57
2023/04/15 04:38:50;;;;;;;1.98;0.90;;;;;;;7.95;32.65;100376.06;4911615;28;20059;-57
2023/04/15 04:41:21;;;;;;;3.30;1.40;;;;;;;8.18;34.90;100369.00;4912112;28;20688;-58
2023/04/15 04:43:53;;;;;;;4.47;1.17;;;;;;;8.51;36.84;100354.13;4908132;28;20485;-58
2023/04/15 04:46:24;;;;;;;1.67;0.90;;;;;;;8.83;32.96;100366.03;4874923;28;20136;-57
2023/04/15 04:48:55;;;;;;;1.83;0.93;;;;;;;8.62;32.90;100362.72;4890720;28;20052;-55
2023/04/15 04:51:26;;;;;;;2.22;1.00;;;;;;;8.29;31.24;100358.56;4891812;28;20060;-57
2023/04/15 04:53:57;;;;;;;0.80;0.80;;;;;;;8.25;32.77;100376.78;4888298;28;20061;-57
2023/04/15 04:56:30;;;;;;;1.63;0.82;;;;;;;8.27;32.90;100364.63;4892387;28;20061;-57
2023/04/15 04:59:02;;;;;;;2.13;0.98;;;;;;;8.55;33.31;100353.19;4891556;28;20056;-58
2023/04/15 05:01:33;;;;;;;1.00;0.80;;;;;;;8.71;31.85;100358.31;4890322;28;20502;-57
2023/04/15 05:04:06;;;;;;;1.65;0.82;;;;;;;8.38;30.37;100350.66;4906059;28;20052;-57
2023/04/15 05:06:37;;;;;;;1.23;0.80;;;;;;;8.23;31.36;100357.72;4906646;28;20112;-52
2023/04/15 05:09:07;;;;;;;2.00;0.88;;;;;;;8.36;32.10;100348.94;4913437;28;20054;-55
2023/04/15 05:11:38;;;;;;;2.05;1.00;;;;;;;8.33;30.75;100348.97;4908271;28;20053;-55
2023/04/15 05:14:10;;;;;;;1.67;1.13;;;;;;;8.14;32.94;100362.09;4903385;28;20152;-54
2023/04/15 05:16:41;;;;;;;4.55;1.00;;;;;;;8.34;31.76;100353.31;4906676;28;20059;-55
2023/04/15 05:19:11;;;;;;;4.18;1.10;;;;;;;8.21;32.56;100337.78;4910713;28;20735;-56
2023/04/15 05:21:42;;;;;;;6.28;1.20;;;;;;;8.29;34.07;100349.88;4910364;28;20052;-56
2023/04/15 05:24:13;;;;;;;5.35;1.30;;;;;;;8.43;33.53;100355.88;4910820;28;20053;-56
2023/04/15 05:26:43;;;;;;;1.73;1.08;;;;;;;8.62;34.40;100343.63;4910946;28;20040;-57
2023/04/15 05:29:16;;;;;;;4.25;1.25;;;;;;;8.86;32.38;100347.75;4908413;28;20056;-56
2023/04/15 05:31:46;;;;;;;2.45;1.27;;;;;;;8.71;32.33;100350.47;4890431;28;20698;-55
2023/04/15 05:34:17;;;;;;;8.30;1.10;;;;;;;8.66;32.86;100352.25;4898426;28;20058;-51
2023/04/15 05:36:47;;;;;;;3.00;1.45;;;;;;;8.77;32.51;100358.28;4896369;28;20076;-54
2023/04/15 05:39:17;;;;;;;6.35;1.10;;;;;;;8.52;32.74;100350.63;4893538;28;20073;-56
2023/04/15 05:41:48;;;;;;;10.55;1.60;;;;;;;8.88;35.56;100351.22;4893838;28;20485;-56
2023/04/15 05:44:20;;;;;;;1.20;1.00;;;;;;;8.75;31.70;100360.03;4894191;28;20049;-56
2023/04/15 05:46:51;;;;;;;1.92;1.08;;;;;;;8.66;32.56;100365.28;4893841;28;20049;-54
2023/04/15 05:49:21;;;;;;;2.88;1.30;;;;;;;8.73;34.81;100320.09;4894304;28;20056;-57
2023/04/15 05:51:51;;;;;;;0.88;0.75;;;;;;;9.38;34.73;100352.50;4893930;28;20049;-57
2023/04/15 05:54:22;;;;;;;1.00;0.80;;;;;;;9.07;30.64;100352.81;4894381;28;20052;-57
2023/04/15 05:56:52;;;;;;;0.85;0.80;;;;;;;8.59;30.54;100365.34;4894041;28;20060;-57
2023/04/15 05:59:24;;;;;;;1.25;0.88;;;;;;;8.27;32.70;100325.59;4893382;28;20049;-55
2023/04/15 06:01:55;;;;;;;4.57;1.00;;;;;;;8.57;32.07;100358.41;4893874;28;20056;-56
2023/04/15 06:04:25;;;;;;;3.45;0.88;;;;;;;8.52;32.40;100353.22;4889784;28;20569;-54
2023/04/15 06:06:56;;;;;;;4.68;1.00;;;;;;;8.35;32.33;100350.69;4892502;28;20109;-53
2023/04/15 06:09:27;;;;;;;3.40;1.25;;;;;;;8.19;31.61;100355.13;4909186;28;20054;-54
2023/04/15 06:12:00;;;;;;;1.95;1.00;;;;;;;8.03;32.32;100348.25;4907919;28;20453;-55
2023/04/15 06:14:32;;;;;;;2.55;1.08;;;;;;;8.04;32.27;100350.00;4902167;28;20136;-56
2023/04/15 06:17:03;;;;;;;2.25;1.10;;;;;;;8.24;31.76;100343.81;4905419;28;20052;-56
2023/04/15 06:19:35;;;;;;;3.22;1.08;;;;;;;8.47;34.53;100349.78;4909523;28;20048;-56
2023/04/15 06:22:06;;;;;;;3.05;1.10;;;;;;;8.36;33.11;100342.03;4920344;28;20048;-56
2023/04/15 06:24:36;;;;;;;3.47;1.67;;;;;;;8.32;32.15;100350.72;4904725;28;20053;-55
2023/04/15 06:27:06;;;;;;;3.97;1.70;;;;;;;8.27;31.48;100356.84;4906723;28;20872;-57
2023/04/15 06:29:39;;;;;;;18.55;4.95;;;;;;;7.81;32.56;100318.00;4915974;28;20060;-55
2023/04/15 06:32:09;;;;;;;4.75;1.42;;;;;;;8.00;32.56;100349.13;4909712;28;20520;-56
2023/04/15 06:34:40;;;;;;;2.85;1.30;;;;;;;8.03;32.99;100350.84;4909647;28;20056;-55
2023/04/15 06:37:14;;;;;;;4.85;1.60;;;;;;;7.90;33.29;100346.59;4909164;28;20403;-56
2023/04/15 06:39:45;;;;;;;5.55;1.80;;;;;;;7.72;33.19;100343.19;4909538;28;20047;-55
2023/04/15 06:42:16;;;;;;;4.53;1.65;;;;;;;7.66;33.48;100351.03;4909367;28;20052;-56
2023/04/15 06:44:48;;;;;;;2.53;1.38;;;;;;;7.56;33.92;100359.69;4907913;28;20474;-56
2023/04/15 06:47:19;;;;;;;6.28;1.40;;;;;;;7.72;32.87;100364.00;4909623;28;20048;-55
2023/04/15 06:49:49;;;;;;;1.08;0.90;;;;;;;7.64;33.78;100352.75;4909581;28;20069;-56
2023/04/15 06:52:20;;;;;;;1.65;0.80;;;;;;;7.66;32.95;100366.63;4908876;28;20056;-57
2023/04/15 06:54:51;;;;;;;2.78;1.55;;;;;;;7.66;33.83;100369.22;4909611;28;20057;-57
2023/04/15 06:57:21;;;;;;;9.82;1.40;;;;;;;7.60;34.02;100358.81;4909382;28;20742;-58
2023/04/15 06:59:54;;;;;;;4.93;1.60;;;;;;;7.58;33.69;100370.97;4909621;28;20059;-57
2023/04/15 07:02:25;;;;;;;3.40;1.35;;;;;;;7.47;33.98;100368.41;4910040;28;20135;-57
2023/04/15 07:04:55;;;;;;;3.83;1.00;;;;;;;7.50;34.49;100367.53;4909444;28;20742;-56
2023/04/15 07:07:26;;;;;;;7.63;1.20;;;;;;;7.41;34.18;100372.72;4909559;28;20044;-56
2023/04/15 07:09:56;;;;;;;4.80;1.17;;;;;;;7.23;35.57;100379.69;4904576;28;20065;-57
2023/04/15 07:12:27;;;;;;;7.85;1.13;;;;;;;7.21;36.02;100389.19;4912474;28;20465;-57
2023/04/15 07:14:59;;;;;;;1.98;1.08;;;;;;;7.19;35.44;100382.28;4902653;28;20046;-56
2023/04/15 07:17:30;;;;;;;5.80;1.10;;;;;;;7.18;36.33;100376.22;4906870;28;20507;-57
2023/04/15 07:20:00;;;;;;;2.55;1.08;;;;;;;7.17;36.02;100364.09;4904957;28;20139;-57
2023/04/15 07:22:31;;;;;;;3.00;1.52;;;;;;;7.02;36.06;100364.97;4904854;28;20052;-57
2023/04/15 07:25:01;;;;;;;2.15;1.10;;;;;;;6.97;36.19;100369.31;4909143;28;20060;-56
2023/04/15 07:27:32;;;;;;;6.15;1.50;;;;;;;6.94;36.44;100376.22;4909276;28;20398;-57
2023/04/15 07:30:04;;;;;;;1.67;1.17;;;;;;;6.78;37.88;100375.34;4908925;28;20101;-57
2023/04/15 07:32:35;;;;;;;3.20;1.10;;;;;;;6.76;38.75;100382.28;4911862;28;20053;-56
2023/04/15 07:35:05;;;;;;;2.58;1.00;;;;;;;6.71;38.37;100392.66;4893715;28;20072;-54
2023/04/15 07:37:36;;;;;;;2.40;1.33;;;;;;;6.72;38.44;100397.00;4893429;28;20044;-56
2023/04/15 07:40:07;;;;;;;1.23;1.13;;;;;;;6.65;39.14;100390.91;4891440;28;20065;-56
2023/04/15 07:42:38;;;;;;;9.05;1.40;;;;;;;6.65;40.41;100405.63;4894934;28;20062;-56
2023/04/15 07:45:12;;;;;;;5.07;1.52;;;;;;;6.78;40.31;100409.13;4893564;28;20127;-54
2023/04/15 07:47:42;;;;;;;5.50;1.80;;;;;;;6.63;40.80;100402.16;4893885;28;20087;-56
2023/04/15 07:50:13;;;;;;;4.13;1.58;;;;;;;6.36;40.38;100377.00;4894302;28;20053;-55
2023/04/15 07:52:44;;;;;;;3.38;1.60;;;;;;;6.52;40.77;100422.06;4892992;28;20052;-55
2023/04/15 07:55:16;;;;;;;2.90;1.75;;;;;;;6.41;41.35;100428.06;4893137;28;20044;-53
2023/04/15 07:57:47;;;;;;;5.70;2.22;;;;;;;6.33;41.66;100428.91;4890684;28;20050;-54
2023/04/15 08:00:19;;;;;;;4.72;1.73;;;;;;;6.23;41.47;100428.88;4897038;28;20065;-55
2023/04/15 08:02:52;;;;;;;5.28;1.88;;;;;;;6.02;42.06;100408.91;4893615;28;20049;-56
2023/04/15 08:05:23;;;;;;;5.50;1.40;;;;;;;6.00;41.74;100427.91;4893775;28;20071;-56
2023/04/15 08:07:54;;;;;;;3.17;1.20;;;;;;;5.79;41.91;100385.44;4892734;28;20057;-53
2023/04/15 08:10:24;;;;;;;7.07;1.10;;;;;;;5.98;41.50;100407.16;4905495;28;20530;-55
2023/04/15 08:12:56;;;;;;;3.85;1.27;;;;;;;5.59;40.94;100361.09;4906510;28;20055;-54
2023/04/15 08:15:28;;;;;;;1.95;1.30;;;;;;;5.73;41.47;100400.06;4892947;28;20053;-55
2023/04/15 08:17:59;;;;;;;4.00;1.33;;;;;;;5.68;41.61;100412.16;4895971;28;20115;-56
2023/04/15 08:20:29;;;;;;;3.83;1.75;;;;;;;5.66;43.00;100413.84;4896550;28;20049;-55
2023/04/15 08:23:00;;;;;;;28.50;3.20;;;;;;;5.62;42.99;100419.03;4896075;28;20044;-53
2023/04/15 08:25:30;;;;;;;3.50;1.60;;;;;;;5.54;42.03;100415.53;4895803;28;20056;-53
2023/04/15 08:28:06;;;;;;;4.50;1.40;;;;;;;5.57;41.77;100441.47;4895860;28;20399;-55
2023/04/15 08:30:38;;;;;;;9.93;1.90;;;;;;;5.40;42.11;100427.50;4890643;28;20046;-55
2023/04/15 08:33:09;;;;;;;9.52;1.70;;;;;;;5.46;42.04;100426.69;4892952;28;20079;-57
2023/04/15 08:35:39;;;;;;;5.70;1.60;;;;;;;5.33;42.00;100430.91;4896122;28;20044;-57
2023/04/15 08:38:10;;;;;;;6.97;1.90;;;;;;;5.17;42.56;100448.06;4912427;28;20052;-57
2023/04/15 08:40:43;;;;;;;5.07;2.17;;;;;;;4.81;42.93;100394.22;4911792;28;20041;-57
2023/04/15 08:43:21;;;;;;;15.98;2.25;;;;;;;5.01;43.17;100434.09;4911848;28;20055;-54
2023/04/15 08:45:54;;;;;;;19.23;2.42;;;;;;;4.98;44.29;100428.91;4901585;28;20048;-53
2023/04/15 08:48:26;;;;;;;8.90;1.67;;;;;;;4.90;44.12;100441.78;4911653;28;20076;-54
2023/04/15 08:50:57;;;;;;;5.60;1.73;;;;;;;4.82;43.94;100447.72;4911667;28;20908;-54
2023/04/15 08:53:29;;;;;;;3.38;1.90;;;;;;;4.72;44.64;100458.00;4903627;28;20053;-56
2023/04/15 08:56:05;;;;;;;6.40;2.00;;;;;;;4.64;45.58;100453.56;4911140;28;20052;-55
2023/04/15 08:58:37;;;;;;;3.38;1.80;;;;;;;4.53;45.67;100461.22;4910843;28;20143;-56
2023/04/15 09:01:12;;;;;;;5.00;1.90;;;;;;;4.42;46.59;100473.16;4901466;28;21860;-53
2023/04/15 09:03:46;;;;;;;9.90;2.35;;;;;;;4.26;46.59;100470.38;4910878;28;20048;-53
2023/04/15 09:06:18;;;;;;;22.92;2.38;;;;;;;4.00;46.72;100453.69;4907273;28;20124;-56
2023/04/15 09:08:49;;;;;;;11.75;2.60;;;;;;;4.02;47.20;100480.41;4910628;28;20056;-56
2023/04/15 09:11:19;;;;;;;12.32;3.00;;;;;;;3.74;47.67;100467.09;4908109;28;20037;-57
2023/04/15 09:13:51;;;;;;;15.50;3.13;;;;;;;3.67;48.20;100475.63;4903722;28;20045;-56
2023/04/15 09:16:23;;;;;;;11.25;3.78;;;;;;;3.58;48.67;100485.81;4905188;28;20331;-57
2023/04/15 09:18:56;;;;;;;18.70;2.70;;;;;;;3.46;49.45;100492.50;4910395;28;20721;-55
2023/04/15 09:21:28;;;;;;;15.98;3.45;;;;;;;3.36;49.84;100489.75;4898506;28;20057;-54
2023/04/15 09:24:01;;;;;;;10.05;2.55;;;;;;;3.26;49.95;100493.91;4908962;28;20048;-56
2023/04/15 09:26:34;;;;;;;7.75;2.00;;;;;;;3.07;49.93;100486.69;4898945;28;20106;-55
2023/04/15 09:29:09;;;;;;;11.57;2.05;;;;;;;3.06;50.49;100495.28;4893531;28;20103;-57
2023/04/15 09:31:42;;;;;;;8.65;2.28;;;;;;;3.00;50.71;100486.56;4899941;28;20052;-52
2023/04/15 09:34:13;;;;;;;8.43;1.88;;;;;;;2.99;50.84;100495.16;4909948;28;20052;-56
2023/04/15 09:36:55;;;;;;;12.07;1.80;;;;;;;2.76;51.22;100492.16;4909722;28;20052;-53
2023/04/15 09:39:26;;;;;;;14.38;2.17;;;;;;;2.57;51.62;100490.03;4899347;28;20135;-56
2023/04/15 09:42:07;;;;;;;11.02;2.70;;;;;;;2.27;52.64;100474.84;4907902;28;20050;-56
2023/04/15 09:44:40;;;;;;;13.52;2.83;;;;;;;2.25;53.89;100492.00;4903847;28;20050;-57
2023/04/15 09:47:29;;;;;;;7.05;2.53;;;;;;;2.20;54.03;100493.59;4909478;28;20129;-53
2023/04/15 09:50:01;;;;;;;4.18;2.08;;;;;;;2.16;54.60;100503.84;4881702;28;20138;-57
2023/04/15 09:52:33;;;;;;;5.75;2.72;;;;;;;2.14;54.82;100502.94;4891360;28;20480;-56
2023/04/15 09:55:03;;;;;;;9.45;3.40;;;;;;;2.10;54.61;100503.72;4891062;28;20079;-56
2023/04/15 09:57:37;;;;;;;8.10;3.03;;;;;;;2.00;54.88;100501.78;4891902;28;20400;-56
2023/04/15 10:00:10;;;;;;;6.13;2.75;;;;;;;1.47;54.61;100422.47;4869952;28;20047;-56
2023/04/15 10:02:43;;;;;;;3.97;2.47;;;;;;;1.87;55.20;100507.47;4881164;28;20467;-53
2023/04/15 10:05:16;;;;;;;8.02;3.20;;;;;;;1.84;55.69;100517.72;4887585;28;20114;-52
2023/04/15 10:07:48;;;;;;;9.07;2.60;;;;;;;1.69;55.68;100516.50;4889381;28;20132;-53
2023/04/15 10:10:18;;;;;;;6.30;2.10;;;;;;;1.59;56.63;100514.56;4893936;28;20044;-53
2023/04/15 10:12:53;;;;;;;10.43;3.75;;;;;;;1.57;56.17;100520.50;4891218;28;20049;-53
2023/04/15 10:15:25;;;;;;;25.02;13.52;;;;;;;1.60;56.81;100531.78;4891364;28;20089;-55
2023/04/15 10:18:01;;;;;;;16.17;8.43;;;;;;;1.61;57.43;100533.50;4891651;28;20049;-53
2023/04/15 10:20:32;;;;;;;6.85;4.05;;;;;;;1.70;58.07;100538.88;4868153;28;20147;-54
2023/04/15 10:23:05;;;;;;;11.27;5.28;;;;;;;1.71;58.48;100532.88;4888486;28;20049;-55
2023/04/15 10:25:42;;;;;;;8.80;4.88;;;;;;;1.67;58.70;100543.97;4881533;28;20053;-55
2023/04/15 10:28:14;;;;;;;16.52;8.02;;;;;;;1.28;58.20;100503.53;4887533;28;20068;-55
2023/04/15 10:30:48;;;;;;;27.08;12.70;;;;;;;1.45;57.59;100545.16;4887180;28;20052;-57
2023/04/15 10:33:32;;;;;;;21.95;10.60;;;;;;;1.28;57.33;100570.44;4877268;28;20053;-56
2023/04/15 10:36:03;;;;;;;20.50;8.82;;;;;;;1.17;57.41;100556.41;4877084;28;20554;-57
2023/04/15 10:38:38;;;;;;;17.73;8.18;;;;;;;1.04;57.97;100554.34;4887617;28;20595;-56
2023/04/15 10:41:24;;;;;;;14.02;6.93;;;;;;;0.60;58.15;100482.00;4886796;28;20044;-57
2023/04/15 10:43:56;;;;;;;15.15;7.30;;;;;;;0.97;58.36;100558.47;4877696;28;20118;-57
2023/04/15 10:46:37;;;;;;;14.13;6.53;;;;;;;1.04;58.90;100565.50;4878820;28;20063;-57
2023/04/15 10:49:14;;;;;;;17.35;5.43;;;;;;;0.84;59.68;100531.53;4887805;28;20058;-56
2023/04/15 10:51:46;;;;;;;12.00;5.60;;;;;;;1.05;61.08;100571.56;4903278;28;20052;-57
2023/04/15 10:54:35;;;;;;;10.25;3.92;;;;;;;0.34;60.96;100471.84;4897654;28;20451;-56
2023/04/15 10:57:17;;;;;;;8.57;4.20;;;;;;;0.60;61.85;100572.00;4877537;28;20056;-57
2023/04/15 11:00:11;;;;;;;6.93;4.03;;;;;;;0.31;62.78;100572.03;4886836;28;20059;-57
2023/04/15 11:02:49;;;;;;;10.15;4.15;;;;;;;0.08;63.94;100578.16;4890860;28;20048;-56
2023/04/15 11:05:23;;;;;;;8.88;3.67;;;;;;;-0.17;64.67;100582.53;4896503;28;20075;-57
2023/04/15 11:07:55;;;;;;;6.05;3.13;;;;;;;-0.38;66.03;100589.53;4893270;28;20052;-57
2023/04/15 11:10:54;;;;;;;5.72;2.72;;;;;;;-0.51;66.91;100594.25;4906231;28;20053;-57
2023/04/15 11:13:34;;;;;;;5.00;3.38;;;;;;;-0.72;67.64;100578.16;4905325;28;20521;-57
2023/04/15 11:16:08;;;;;;;5.57;2.72;;;;;;;-1.06;68.40;100548.75;4890899;28;20079;-57
2023/04/15 11:18:38;;;;;;;8.80;2.97;;;;;;;-0.80;68.75;100600.06;4897489;28;20474;-57
2023/04/15 11:21:11;;;;;;;6.05;3.00;;;;;;;-0.85;69.54;100592.22;4901359;28;20060;-56
2023/04/15 11:23:46;;;;;;;7.93;3.40;;;;;;;-0.84;69.98;100590.53;4887824;28;20057;-56
2023/04/15 11:26:20;;;;;;;7.53;3.70;;;;;;;-0.92;70.50;100596.28;4903325;28;20046;-56
2023/04/15 11:28:51;;;;;;;10.68;4.85;;;;;;;-0.92;70.65;100593.72;4885869;28;20052;-57
2023/04/15 11:31:30;;;;;;;7.55;3.45;;;;;;;-1.00;70.99;100582.31;4886168;28;20044;-57
2023/04/15 11:34:01;;;;;;;10.30;3.45;;;;;;;-1.05;71.50;100586.38;4895923;28;20045;-57
2023/04/15 11:36:37;;;;;;;5.18;3.10;;;;;;;-1.07;71.63;100580.34;4906943;28;20495;-57
2023/04/15 11:39:08;;;;;;;6.22;3.30;;;;;;;-1.12;71.82;100576.75;4895277;28;20468;-56
2023/04/15 11:41:39;;;;;;;5.03;3.00;;;;;;;-1.21;72.23;100571.28;4897047;28;20111;-56
2023/04/15 11:44:18;;;;;;;6.85;3.20;;;;;;;-1.21;72.82;100576.41;4901387;28;20067;-56
2023/04/15 11:46:49;;;;;;;6.63;3.78;;;;;;;-1.27;73.19;100571.94;4894159;28;20087;-57
2023/04/15 11:49:28;;;;;;;3.47;2.40;;;;;;;-1.24;73.86;100566.06;4877236;28;20060;-56
2023/04/15 11:52:01;;;;;;;11.85;2.83;;;;;;;-1.23;74.15;100562.66;4858779;28;20049;-57
2023/04/15 11:54:31;;;;;;;9.02;2.85;;;;;;;-1.17;73.97;100568.03;4870591;28;20057;-57